createdAt,value
2023-05-02T00:01:17.667Z,5.20
2023-05-02T00:04:19.012Z,4.30
2023-05-02T00:07:20.574Z,4.40
2023-05-02T00:10:21.866Z,4.00
2023-05-02T00:13:23.156Z,5.05
2023-05-02T00:16:24.465Z,4.38
2023-05-02T00:19:25.771Z,4.70
2023-05-02T00:22:27.055Z,4.03
2023-05-02T00:25:28.390Z,4.35
2023-05-02T00:28:29.931Z,4.15
2023-05-02T00:31:31.278Z,4.45
2023-05-02T00:34:32.646Z,3.78
2023-05-02T00:37:33.933Z,4.60
2023-05-02T00:40:35.221Z,3.97
2023-05-02T00:43:36.501Z,4.00
2023-05-02T00:46:37.855Z,4.78
2023-05-02T00:49:39.182Z,3.97
2023-05-02T00:52:40.492Z,4.30
2023-05-02T00:55:41.774Z,4.38
2023-05-02T00:58:43.090Z,4.10
2023-05-02T01:01:44.412Z,3.47
2023-05-02T01:04:45.760Z,4.25
2023-05-02T01:07:47.079Z,4.00
2023-05-02T01:10:48.376Z,3.58
2023-05-02T01:13:49.688Z,3.60
2023-05-02T01:16:50.995Z,4.68
2023-05-02T01:19:52.284Z,3.85
2023-05-02T01:22:53.585Z,4.23
2023-05-02T01:25:54.891Z,4.72
2023-05-02T01:28:56.177Z,4.68
2023-05-02T01:31:57.619Z,3.90
2023-05-02T01:34:58.975Z,3.65
2023-05-02T01:38:00.271Z,5.27
2023-05-02T01:41:01.562Z,3.83
2023-05-02T01:44:02.865Z,3.83
2023-05-02T01:47:04.170Z,3.35
2023-05-02T01:50:05.550Z,3.58
2023-05-02T01:53:06.870Z,3.57
2023-05-02T01:56:08.181Z,4.00
2023-05-02T01:59:09.474Z,3.58
2023-05-02T02:02:10.775Z,3.95
2023-05-02T02:05:12.062Z,3.80
2023-05-02T02:08:13.364Z,3.50
2023-05-02T02:11:14.669Z,3.88
2023-05-02T02:14:15.963Z,3.67
2023-05-02T02:17:17.275Z,4.13
2023-05-02T02:20:18.567Z,4.45
2023-05-02T02:23:19.855Z,3.47
2023-05-02T02:26:21.148Z,3.47
2023-05-02T02:29:22.435Z,3.83
2023-05-02T02:32:23.773Z,3.78
2023-05-02T02:35:25.068Z,3.53
2023-05-02T02:38:26.371Z,4.33
2023-05-02T02:41:27.689Z,4.50
2023-05-02T02:44:28.988Z,4.75
2023-05-02T02:47:30.344Z,3.58
2023-05-02T02:50:31.674Z,3.60
2023-05-02T02:53:32.965Z,3.60
2023-05-02T02:56:34.264Z,3.28
2023-05-02T02:59:35.552Z,4.05
2023-05-02T03:02:36.991Z,3.55
2023-05-02T03:05:38.349Z,3.30
2023-05-02T03:08:39.657Z,3.30
2023-05-02T03:11:40.956Z,4.70
2023-05-02T03:14:42.271Z,3.30
2023-05-02T03:17:43.611Z,4.20
2023-05-02T03:20:44.956Z,3.55
2023-05-02T03:23:46.270Z,2.93
2023-05-02T03:26:47.575Z,3.42
2023-05-02T03:29:48.863Z,3.30
2023-05-02T03:32:50.201Z,3.72
2023-05-02T03:35:51.575Z,3.65
2023-05-02T03:38:54.092Z,3.13
2023-05-02T03:41:55.425Z,3.50
2023-05-02T03:44:56.753Z,2.90
2023-05-02T03:47:58.130Z,4.15
2023-05-02T03:50:59.529Z,4.13
2023-05-02T03:54:00.853Z,3.30
2023-05-02T03:57:02.190Z,3.40
2023-05-02T04:00:03.498Z,4.07
2023-05-02T04:03:04.808Z,3.75
2023-05-02T04:06:06.191Z,5.65
2023-05-02T04:09:07.532Z,3.60
2023-05-02T04:12:08.845Z,6.10
2023-05-02T04:15:10.148Z,3.60
2023-05-02T04:18:11.470Z,5.97
2023-05-02T04:21:12.817Z,25.50
2023-05-02T04:24:14.119Z,12.10
2023-05-02T04:27:15.589Z,9.60
2023-05-02T04:30:16.928Z,16.27
2023-05-02T04:33:18.259Z,9.63
2023-05-02T04:36:19.572Z,5.72
2023-05-02T04:39:20.882Z,6.70
2023-05-02T04:42:22.196Z,8.07
2023-05-02T04:45:23.519Z,7.03
2023-05-02T04:48:24.853Z,7.85
2023-05-02T04:51:26.149Z,8.65
2023-05-02T04:54:27.467Z,10.40
2023-05-02T04:57:28.782Z,6.00
2023-05-02T05:00:30.111Z,5.05
2023-05-02T05:03:31.533Z,4.65
2023-05-02T05:06:32.962Z,5.75
2023-05-02T05:09:34.335Z,7.60
2023-05-02T05:12:35.629Z,6.40
2023-05-02T05:15:36.929Z,7.10
2023-05-02T05:18:38.244Z,4.13
2023-05-02T05:21:39.548Z,7.88
2023-05-02T05:24:40.857Z,5.03
2023-05-02T05:27:42.134Z,7.10
2023-05-02T05:30:43.416Z,5.32
2023-05-02T05:33:44.756Z,7.22
2023-05-02T05:36:46.103Z,10.40
2023-05-02T05:39:47.429Z,9.37
2023-05-02T05:42:48.751Z,10.70
2023-05-02T05:45:50.031Z,8.75
2023-05-02T05:48:51.336Z,18.00
2023-05-02T05:51:52.680Z,14.35
2023-05-02T05:54:53.982Z,64.23
2023-05-02T05:57:55.279Z,122.05
2023-05-02T06:00:56.608Z,61.42
2023-05-02T06:03:58.056Z,51.70
2023-05-02T06:06:59.496Z,36.72
2023-05-02T06:10:01.208Z,38.73
2023-05-02T06:13:02.778Z,26.40
2023-05-02T06:16:04.074Z,32.95
2023-05-02T06:19:05.418Z,36.72
2023-05-02T06:22:06.738Z,31.17
2023-05-02T06:25:08.072Z,28.80
2023-05-02T06:28:09.352Z,24.48
2023-05-02T06:31:10.711Z,30.33
2023-05-02T06:34:12.040Z,24.55
2023-05-02T06:37:13.406Z,34.38
2023-05-02T06:40:14.725Z,29.97
2023-05-02T06:43:16.035Z,31.48
2023-05-02T06:46:17.381Z,32.97
2023-05-02T06:49:18.699Z,42.50
2023-05-02T06:52:20.003Z,25.35
2023-05-02T06:55:21.317Z,44.47
2023-05-02T06:58:22.623Z,28.98
2023-05-02T07:01:24.002Z,23.92
2023-05-02T07:04:26.335Z,29.00
2023-05-02T07:07:27.720Z,24.40
2023-05-02T07:10:29.016Z,28.47
2023-05-02T07:13:30.321Z,31.38
2023-05-02T07:16:31.645Z,25.00
2023-05-02T07:19:33.023Z,27.58
2023-05-02T07:22:34.352Z,25.00
2023-05-02T07:25:35.692Z,20.87
2023-05-02T07:28:36.994Z,19.88
2023-05-02T07:31:38.368Z,23.90
2023-05-02T07:34:39.717Z,16.85
2023-05-02T07:37:41.019Z,20.33
2023-05-02T07:40:42.350Z,20.77
2023-05-02T07:43:43.670Z,18.70
2023-05-02T07:46:45.131Z,27.45
2023-05-02T07:49:46.568Z,53.85
2023-05-02T07:52:47.877Z,48.30
2023-05-02T07:55:49.392Z,51.37
2023-05-02T07:58:50.677Z,48.08
2023-05-02T08:01:51.997Z,56.55
2023-05-02T08:04:53.331Z,37.22
2023-05-02T08:07:54.669Z,39.95
2023-05-02T08:10:56.003Z,27.83
2023-05-02T08:13:57.323Z,32.10
2023-05-02T08:16:58.642Z,34.60
2023-05-02T08:20:02.615Z,32.50
2023-05-02T08:23:04.109Z,51.25
2023-05-02T08:26:05.502Z,31.83
2023-05-02T08:29:06.820Z,34.13
2023-05-02T08:32:08.410Z,32.30
2023-05-02T08:35:09.842Z,21.67
2023-05-02T08:38:11.155Z,26.45
2023-05-02T08:41:12.474Z,29.37
2023-05-02T08:44:13.770Z,24.92
2023-05-02T08:47:15.294Z,26.10
2023-05-02T08:50:16.671Z,23.08
2023-05-02T08:53:17.995Z,23.45
2023-05-02T08:56:19.294Z,18.17
2023-05-02T08:59:20.624Z,16.35
2023-05-02T09:02:21.953Z,18.63
2023-05-02T09:05:23.298Z,19.08
2023-05-02T09:08:24.612Z,18.40
2023-05-02T09:11:25.899Z,19.20
2023-05-02T09:14:27.224Z,20.33
2023-05-02T09:17:28.543Z,21.65
2023-05-02T09:20:29.947Z,24.08
2023-05-02T09:23:31.226Z,17.77
2023-05-02T09:26:32.739Z,24.33
2023-05-02T09:29:34.230Z,15.57
2023-05-02T09:32:35.574Z,18.38
2023-05-02T09:35:36.875Z,12.40
2023-05-02T09:38:38.213Z,15.25
2023-05-02T09:41:39.509Z,13.30
2023-05-02T09:44:40.865Z,101.97
2023-05-02T09:47:42.182Z,87.55
2023-05-02T09:50:43.528Z,58.50
2023-05-02T09:53:44.864Z,49.50
2023-05-02T09:56:46.145Z,49.97
2023-05-02T09:59:47.468Z,36.67
2023-05-02T10:02:48.798Z,31.92
2023-05-02T10:05:50.141Z,18.10
2023-05-02T10:08:51.418Z,29.50
2023-05-02T10:11:52.723Z,22.20
2023-05-02T10:14:54.049Z,13.70
2023-05-02T10:17:55.419Z,19.20
2023-05-02T10:20:56.858Z,16.55
2023-05-02T10:23:58.175Z,24.17
2023-05-02T10:26:59.517Z,18.43
2023-05-02T10:30:01.901Z,17.88
2023-05-02T10:33:03.296Z,20.98
2023-05-02T10:36:04.673Z,16.35
2023-05-02T10:39:05.976Z,18.85
2023-05-02T10:42:07.274Z,11.20
2023-05-02T10:45:08.583Z,13.63
2023-05-02T10:48:09.895Z,17.40
2023-05-02T10:51:11.262Z,17.10
2023-05-02T10:54:12.571Z,18.80
2023-05-02T10:57:13.862Z,23.83
2023-05-02T11:00:15.217Z,19.17
2023-05-02T11:03:16.632Z,22.65
2023-05-02T11:06:18.116Z,17.70
2023-05-02T11:09:19.480Z,21.15
2023-05-02T11:12:20.805Z,14.53
2023-05-02T11:15:22.117Z,14.80
2023-05-02T11:18:23.435Z,15.77
2023-05-02T11:21:24.749Z,12.75
2023-05-02T11:24:26.033Z,17.50
2023-05-02T11:27:27.359Z,23.17
2023-05-02T11:30:28.680Z,11.13
2023-05-02T11:33:29.987Z,17.55
2023-05-02T11:36:31.308Z,16.45
2023-05-02T11:39:32.601Z,14.48
2023-05-02T11:42:33.910Z,13.07
2023-05-02T11:45:35.210Z,15.18
2023-05-02T11:48:36.544Z,13.63
2023-05-02T11:51:37.859Z,18.92
2023-05-02T11:54:39.154Z,13.10
2023-05-02T11:57:40.645Z,15.40
2023-05-02T12:00:41.954Z,21.60
2023-05-02T12:03:43.475Z,9.93
2023-05-02T12:06:44.913Z,17.98
2023-05-02T12:09:46.293Z,14.27
2023-05-02T12:12:47.584Z,13.87
2023-05-02T12:15:48.911Z,19.90
2023-05-02T12:18:50.208Z,20.15
2023-05-02T12:21:51.599Z,17.48
2023-05-02T12:24:52.897Z,19.58
2023-05-02T12:27:54.196Z,19.43
2023-05-02T12:30:55.501Z,16.52
2023-05-02T12:33:56.828Z,19.23
2023-05-02T12:36:58.114Z,17.60
2023-05-02T12:39:59.743Z,17.15
2023-05-02T12:43:01.219Z,15.73
2023-05-02T12:46:02.526Z,15.88
2023-05-02T12:49:03.824Z,18.52
2023-05-02T12:52:05.163Z,20.85
2023-05-02T12:55:06.463Z,17.70
2023-05-02T12:58:07.777Z,13.50
2023-05-02T13:01:09.147Z,14.38
2023-05-02T13:04:10.598Z,15.52
2023-05-02T13:07:12.002Z,12.35
2023-05-02T13:10:13.303Z,9.20
2023-05-02T13:13:14.647Z,14.93
2023-05-02T13:16:16.004Z,18.77
2023-05-02T13:19:17.391Z,14.13
2023-05-02T13:22:18.746Z,14.60
2023-05-02T13:25:20.102Z,14.65
2023-05-02T13:28:22.519Z,9.00
2023-05-02T13:31:23.933Z,11.48
2023-05-02T13:34:25.253Z,11.48
2023-05-02T13:37:26.595Z,14.05
2023-05-02T13:40:27.930Z,13.80
2023-05-02T13:43:29.252Z,26.60
2023-05-02T13:46:30.669Z,46.30
2023-05-02T13:49:32.024Z,24.70
2023-05-02T13:52:33.355Z,27.50
2023-05-02T13:55:34.700Z,37.78
2023-05-02T13:58:36.013Z,61.63
2023-05-02T14:01:37.333Z,55.38
2023-05-02T14:04:38.639Z,45.90
2023-05-02T14:07:40.149Z,34.85
2023-05-02T14:10:41.521Z,24.65
2023-05-02T14:13:42.811Z,20.00
2023-05-02T14:16:44.305Z,21.55
2023-05-02T14:19:45.586Z,20.73
2023-05-02T14:22:46.916Z,17.77
2023-05-02T14:25:48.209Z,14.38
2023-05-02T14:28:49.548Z,17.27
2023-05-02T14:31:50.900Z,11.77
2023-05-02T14:34:52.276Z,19.98
2023-05-02T14:37:53.594Z,17.98
2023-05-02T14:40:54.935Z,16.83
2023-05-02T14:43:56.306Z,18.40
2023-05-02T14:46:57.644Z,18.35
2023-05-02T14:49:59.002Z,24.90
2023-05-02T14:53:00.344Z,18.52
2023-05-02T14:56:01.640Z,39.65
2023-05-02T14:59:02.967Z,80.10
2023-05-02T15:02:04.379Z,59.53
2023-05-02T15:05:05.829Z,57.38
2023-05-02T15:08:07.132Z,43.90
2023-05-02T15:11:08.448Z,49.97
2023-05-02T15:14:09.753Z,43.00
2023-05-02T15:17:11.120Z,33.70
2023-05-02T15:20:12.436Z,31.20
2023-05-02T15:23:13.757Z,26.63
2023-05-02T15:26:15.095Z,18.25
2023-05-02T15:29:16.413Z,26.23
2023-05-02T15:32:17.740Z,22.55
2023-05-02T15:35:19.092Z,26.13
2023-05-02T15:38:20.378Z,21.45
2023-05-02T15:41:21.676Z,21.88
2023-05-02T15:44:22.986Z,25.37
2023-05-02T15:47:24.290Z,16.13
2023-05-02T15:50:26.246Z,20.67
2023-05-02T15:53:27.585Z,23.13
2023-05-02T15:56:30.070Z,19.42
2023-05-02T15:59:31.888Z,15.87
2023-05-02T16:02:33.188Z,20.65
2023-05-02T16:05:34.482Z,16.30
2023-05-02T16:08:35.982Z,15.88
2023-05-02T16:11:37.294Z,13.15
2023-05-02T16:14:38.611Z,11.30
2023-05-02T16:17:39.944Z,12.43
2023-05-02T16:20:41.296Z,11.60
2023-05-02T16:23:42.585Z,13.15
2023-05-02T16:26:43.912Z,11.38
2023-05-02T16:29:45.420Z,11.73
2023-05-02T16:32:46.750Z,11.10
2023-05-02T16:35:48.052Z,14.05
2023-05-02T16:38:49.354Z,11.68
2023-05-02T16:41:50.641Z,13.35
2023-05-02T16:44:51.940Z,14.07
2023-05-02T16:47:53.215Z,13.23
2023-05-02T16:50:54.524Z,20.38
2023-05-02T16:53:55.989Z,10.18
2023-05-02T16:56:57.322Z,9.52
2023-05-02T16:59:58.629Z,13.70
2023-05-02T17:03:01.084Z,9.20
2023-05-02T17:06:03.629Z,9.32
2023-05-02T17:09:04.993Z,12.60
2023-05-02T17:12:06.297Z,12.00
2023-05-02T17:15:07.647Z,9.80
2023-05-02T17:18:09.021Z,11.30
2023-05-02T17:21:10.321Z,10.18
2023-05-02T17:24:11.618Z,11.00
2023-05-02T17:27:12.900Z,8.80
2023-05-02T17:30:14.202Z,8.83
2023-05-02T17:33:15.477Z,9.38
2023-05-02T17:36:16.978Z,11.93
2023-05-02T17:39:18.697Z,9.32
2023-05-02T17:42:20.162Z,7.50
2023-05-02T17:45:21.481Z,10.27
2023-05-02T17:48:23.104Z,10.48
2023-05-02T17:51:24.824Z,9.98
2023-05-02T17:54:27.666Z,7.53
2023-05-02T17:57:32.629Z,9.95
2023-05-02T18:00:34.403Z,7.27
2023-05-02T18:03:35.893Z,10.05
2023-05-02T18:06:37.423Z,8.00
2023-05-02T18:09:38.785Z,7.57
2023-05-02T18:12:40.112Z,8.38
2023-05-02T18:15:41.579Z,8.23
2023-05-02T18:18:42.955Z,9.30
2023-05-02T18:21:44.710Z,9.40
2023-05-02T18:24:46.276Z,6.65
2023-05-02T18:27:48.051Z,7.85
2023-05-02T18:30:49.655Z,6.97
2023-05-02T18:33:51.048Z,8.43
2023-05-02T18:36:52.320Z,8.27
2023-05-02T18:39:53.633Z,9.15
2023-05-02T18:42:54.942Z,6.70
2023-05-02T18:45:56.760Z,6.23
2023-05-02T18:48:58.376Z,6.50
2023-05-02T18:52:01.189Z,6.95
2023-05-02T18:55:03.998Z,8.07
2023-05-02T18:58:05.678Z,6.65
2023-05-02T19:01:07.450Z,9.07
2023-05-02T19:04:09.295Z,7.43
2023-05-02T19:07:13.700Z,6.80
2023-05-02T19:10:15.325Z,6.47
2023-05-02T19:13:17.478Z,7.07
2023-05-02T19:16:18.928Z,5.73
2023-05-02T19:19:20.742Z,5.22
2023-05-02T19:22:22.529Z,7.22
2023-05-02T19:25:24.181Z,6.13
2023-05-02T19:28:25.980Z,5.75
2023-05-02T19:31:29.843Z,5.97
2023-05-02T19:34:31.900Z,7.55
2023-05-02T19:37:33.674Z,6.00
2023-05-02T19:40:35.512Z,4.60
2023-05-02T19:43:36.924Z,7.22
2023-05-02T19:46:39.441Z,5.83
2023-05-02T19:49:41.067Z,5.75
2023-05-02T19:52:42.437Z,5.53
2023-05-02T19:55:43.766Z,6.75
2023-05-02T19:58:45.463Z,6.72
2023-05-02T20:01:47.455Z,5.97
2023-05-02T20:04:49.183Z,6.30
2023-05-02T20:07:51.020Z,5.97
2023-05-02T20:10:52.948Z,5.97
2023-05-02T20:13:54.400Z,6.15
2023-05-02T20:16:56.118Z,7.33
2023-05-02T20:19:57.969Z,6.75
2023-05-02T20:22:59.363Z,6.15
2023-05-02T20:26:00.701Z,6.40
2023-05-02T20:29:02.011Z,5.43
2023-05-02T20:32:04.525Z,6.07
2023-05-02T20:35:06.042Z,5.72
2023-05-02T20:38:07.348Z,6.03
2023-05-02T20:41:08.636Z,5.35
2023-05-02T20:44:09.921Z,5.30
2023-05-02T20:47:11.253Z,5.63
2023-05-02T20:50:12.584Z,7.65
2023-05-02T20:53:13.905Z,6.50
2023-05-02T20:56:15.227Z,6.05
2023-05-02T20:59:16.506Z,6.10
2023-05-02T21:02:17.842Z,5.53
2023-05-02T21:05:19.125Z,6.63
2023-05-02T21:08:20.436Z,6.43
2023-05-02T21:11:21.722Z,5.15
2023-05-02T21:14:23.102Z,5.07
2023-05-02T21:17:24.412Z,6.20
2023-05-02T21:20:25.703Z,5.05
2023-05-02T21:23:26.999Z,5.22
2023-05-02T21:26:28.337Z,4.15
2023-05-02T21:29:29.671Z,6.65
2023-05-02T21:32:30.988Z,5.57
2023-05-02T21:35:32.307Z,5.13
2023-05-02T21:38:33.616Z,5.15
2023-05-02T21:41:34.929Z,5.70
2023-05-02T21:44:36.262Z,5.38
2023-05-02T21:47:37.556Z,5.50
2023-05-02T21:50:40.215Z,5.15
2023-05-02T21:53:41.690Z,5.03
2023-05-02T21:56:43.169Z,6.97
2023-05-02T21:59:44.473Z,5.82
2023-05-02T22:02:45.917Z,4.60
2023-05-02T22:05:47.296Z,6.22
2023-05-02T22:08:48.591Z,5.68
2023-05-02T22:11:49.890Z,5.07
2023-05-02T22:14:51.216Z,4.65
2023-05-02T22:17:52.556Z,4.73
2023-05-02T22:20:53.852Z,4.93
2023-05-02T22:23:55.152Z,5.50
2023-05-02T22:26:56.440Z,4.75
2023-05-02T22:29:57.779Z,4.38
2023-05-02T22:32:59.129Z,4.40
2023-05-02T22:36:00.473Z,4.68
2023-05-02T22:39:01.755Z,4.68
2023-05-02T22:42:03.120Z,7.53
2023-05-02T22:45:04.484Z,5.32
2023-05-02T22:48:05.840Z,5.33
2023-05-02T22:51:07.208Z,4.72
2023-05-02T22:54:08.517Z,4.72
2023-05-02T22:57:09.929Z,4.55
2023-05-02T23:00:11.281Z,5.35
2023-05-02T23:03:12.737Z,4.70
2023-05-02T23:06:14.180Z,7.35
2023-05-02T23:09:15.488Z,4.65
2023-05-02T23:12:16.790Z,5.30
2023-05-02T23:15:18.279Z,4.75
2023-05-02T23:18:19.588Z,5.13
2023-05-02T23:21:21.064Z,5.90
2023-05-02T23:24:22.347Z,4.65
2023-05-02T23:27:23.654Z,4.35
2023-05-02T23:30:24.967Z,5.43
2023-05-02T23:33:26.283Z,4.37
2023-05-02T23:36:27.565Z,3.72
2023-05-02T23:39:28.879Z,4.82
2023-05-02T23:42:30.248Z,4.47
2023-05-02T23:45:31.573Z,4.40
2023-05-02T23:48:32.881Z,4.03
2023-05-02T23:51:34.172Z,3.60
2023-05-02T23:54:35.458Z,4.15
2023-05-02T23:57:36.749Z,3.92
